Time;durP1;ratioP1;P1;durP2;ratioP2;P2;SDS_P1;SDS_P2;PMS_P1;PMS_P2;Temp;Humidity;BMP_temperature;BMP_pressure;BME280_temperature;BME280_humidity;BME280_pressure;Samples;Min_cycle;Max_cycle;Signal;HPM_P1;HPM_P2
2022/03/26 00:01:27;;;;;;;;;;;23.30;34.70;;;;;;5074025;22;19943;-73
2022/03/26 00:03:52;;;;;;;;;;;23.20;34.70;;;;;;5064487;23;19996;-60
2022/03/26 00:06:18;;;;;;;;;;;23.30;34.70;;;;;;5077137;28;19917;-59
2022/03/26 00:08:43;;;;;;;;;;;23.20;34.70;;;;;;5064622;28;20427;-60
2022/03/26 00:11:08;;;;;;;;;;;23.30;34.70;;;;;;5064088;28;20259;-60
2022/03/26 00:13:34;;;;;;;;;;;23.30;34.70;;;;;;5064750;28;19986;-60
2022/03/26 00:16:00;;;;;;;;;;;23.30;34.80;;;;;;5049802;28;19912;-61
2022/03/26 00:18:25;;;;;;;;;;;23.20;34.70;;;;;;5057600;28;19924;-60
2022/03/26 00:20:51;;;;;;;;;;;23.20;34.80;;;;;;5059913;28;20355;-59
2022/03/26 00:23:17;;;;;;;;;;;23.20;34.80;;;;;;5049192;28;19963;-60
2022/03/26 00:25:43;;;;;;;;;;;23.20;34.90;;;;;;5041349;28;19963;-60
2022/03/26 00:28:08;;;;;;;;;;;23.10;34.80;;;;;;5060159;28;19948;-59
2022/03/26 00:30:34;;;;;;;;;;;23.10;34.90;;;;;;5050366;28;19916;-59
2022/03/26 00:32:59;;;;;;;;;;;23.10;35.00;;;;;;5063155;28;20371;-60
2022/03/26 00:35:25;;;;;;;;;;;23.10;35.10;;;;;;5040727;28;19916;-60
2022/03/26 00:37:52;;;;;;;;;;;23.10;35.00;;;;;;5063261;28;20006;-60
2022/03/26 00:40:18;;;;;;;;;;;23.10;35.00;;;;;;5062544;28;19909;-59
2022/03/26 00:42:43;;;;;;;;;;;23.10;35.00;;;;;;5061415;28;19939;-60
2022/03/26 00:45:09;;;;;;;;;;;23.10;35.00;;;;;;5057319;28;19916;-60
2022/03/26 00:47:34;;;;;;;;;;;23.10;35.00;;;;;;5047453;28;19962;-60
2022/03/26 00:50:00;;;;;;;;;;;23.10;35.00;;;;;;5066862;28;19953;-60
2022/03/26 00:52:25;;;;;;;;;;;23.10;35.00;;;;;;5058302;28;20003;-60
2022/03/26 00:54:51;;;;;;;;;;;23.10;35.00;;;;;;5061470;28;19913;-60
2022/03/26 00:57:16;;;;;;;;;;;23.10;35.10;;;;;;5063249;28;19928;-60
2022/03/26 00:59:42;;;;;;;;;;;23.10;35.10;;;;;;5062799;28;19920;-60
2022/03/26 01:02:07;;;;;;;;;;;23.10;35.00;;;;;;5064501;28;19913;-60
2022/03/26 01:04:33;;;;;;;;;;;23.10;35.10;;;;;;5063125;28;20046;-59
2022/03/26 01:06:58;;;;;;;;;;;23.10;35.10;;;;;;5065840;28;20005;-60
2022/03/26 01:09:24;;;;;;;;;;;23.10;35.10;;;;;;5064973;28;19913;-59
2022/03/26 01:11:49;;;;;;;;;;;23.10;35.20;;;;;;5052249;28;20015;-60
2022/03/26 01:14:15;;;;;;;;;;;23.10;35.10;;;;;;5069576;28;19916;-59
2022/03/26 01:16:40;;;;;;;;;;;23.10;35.10;;;;;;5056602;28;19999;-60
2022/03/26 01:19:06;;;;;;;;;;;23.10;35.20;;;;;;5062488;28;20118;-59
2022/03/26 01:21:31;;;;;;;;;;;23.10;35.20;;;;;;5067221;28;19948;-59
2022/03/26 01:23:57;;;;;;;;;;;23.10;35.20;;;;;;5066633;28;19916;-60
2022/03/26 01:26:22;;;;;;;;;;;23.10;35.90;;;;;;5066271;28;19913;-60
2022/03/26 01:28:48;;;;;;;;;;;23.10;35.20;;;;;;5060790;28;19997;-60
2022/03/26 01:31:13;;;;;;;;;;;23.10;35.30;;;;;;5065376;28;19920;-60
2022/03/26 01:33:39;;;;;;;;;;;23.00;35.20;;;;;;5064800;28;19942;-60
2022/03/26 01:36:04;;;;;;;;;;;23.00;35.30;;;;;;5067286;28;19952;-59
2022/03/26 01:38:30;;;;;;;;;;;23.00;35.30;;;;;;5063739;28;20352;-60
2022/03/26 01:40:55;;;;;;;;;;;23.00;35.30;;;;;;5065834;28;19908;-59
2022/03/26 01:43:21;;;;;;;;;;;23.00;35.30;;;;;;5047475;28;19912;-59
2022/03/26 01:45:46;;;;;;;;;;;23.00;35.40;;;;;;5065284;28;19917;-60
2022/03/26 01:48:12;;;;;;;;;;;23.00;35.40;;;;;;5048697;28;19919;-59
2022/03/26 01:50:39;;;;;;;;;;;22.90;35.40;;;;;;5061694;28;20015;-60
2022/03/26 01:53:05;;;;;;;;;;;22.90;35.40;;;;;;5063279;28;19931;-60
2022/03/26 01:55:30;;;;;;;;;;;22.90;35.40;;;;;;5069495;28;19919;-59
2022/03/26 01:57:56;;;;;;;;;;;22.80;35.40;;;;;;5059319;28;19960;-60
2022/03/26 02:00:21;;;;;;;;;;;22.90;35.60;;;;;;5067805;28;20282;-60
2022/03/26 02:02:46;;;;;;;;;;;22.80;35.50;;;;;;5066549;28;20362;-59
2022/03/26 02:05:17;;;;;;;;;;;22.80;35.70;;;;;;5066614;28;19920;-60
2022/03/26 02:07:43;;;;;;;;;;;22.70;35.70;;;;;;5060116;28;19924;-59
2022/03/26 02:10:09;;;;;;;;;;;22.80;35.80;;;;;;5060002;28;19956;-59
2022/03/26 02:12:34;;;;;;;;;;;22.80;35.70;;;;;;5045974;28;19936;-59
2022/03/26 02:15:00;;;;;;;;;;;22.70;35.70;;;;;;5063672;28;19912;-60
2022/03/26 02:17:25;;;;;;;;;;;22.70;35.70;;;;;;5057431;28;19928;-60
2022/03/26 02:19:52;;;;;;;;;;;22.70;35.70;;;;;;5053703;28;19916;-60
2022/03/26 02:22:17;;;;;;;;;;;22.70;35.70;;;;;;5063252;28;19924;-60
2022/03/26 02:24:42;;;;;;;;;;;22.80;35.80;;;;;;5065891;28;20306;-60
2022/03/26 02:27:08;;;;;;;;;;;22.80;35.70;;;;;;5066726;28;19913;-60
2022/03/26 02:29:34;;;;;;;;;;;22.90;35.70;;;;;;5065591;28;20298;-59
2022/03/26 02:31:59;;;;;;;;;;;22.90;35.60;;;;;;5068293;28;19917;-59
2022/03/26 02:34:26;;;;;;;;;;;23.00;35.50;;;;;;5059932;28;19917;-59
2022/03/26 02:36:57;;;;;;;;;;;23.00;35.30;;;;;;5066559;28;19924;-60
2022/03/26 02:39:23;;;;;;;;;;;23.10;35.30;;;;;;5067239;28;19913;-60
2022/03/26 02:41:48;;;;;;;;;;;23.10;35.10;;;;;;5064048;28;20371;-60
2022/03/26 02:44:14;;;;;;;;;;;23.10;34.90;;;;;;5063485;28;19991;-59
2022/03/26 02:46:39;;;;;;;;;;;23.20;34.90;;;;;;5067782;28;19931;-60
2022/03/26 02:49:05;;;;;;;;;;;23.20;34.90;;;;;;5065596;28;20015;-60
2022/03/26 02:51:30;;;;;;;;;;;23.20;34.80;;;;;;5052514;28;19932;-60
2022/03/26 02:53:55;;;;;;;;;;;23.20;34.80;;;;;;5065358;28;19968;-60
2022/03/26 02:56:21;;;;;;;;;;;23.20;34.80;;;;;;5049241;28;19919;-60
2022/03/26 02:58:47;;;;;;;;;;;23.20;34.80;;;;;;5063809;28;19917;-59
2022/03/26 03:01:13;;;;;;;;;;;23.20;34.80;;;;;;5060859;28;19912;-59
2022/03/26 03:03:38;;;;;;;;;;;23.10;34.70;;;;;;5048042;28;19978;-59
2022/03/26 03:06:04;;;;;;;;;;;23.10;34.80;;;;;;5051883;28;19916;-59
2022/03/26 03:08:29;;;;;;;;;;;23.10;34.80;;;;;;5048062;28;20329;-60
2022/03/26 03:10:55;;;;;;;;;;;23.10;34.70;;;;;;5064173;28;19916;-60
2022/03/26 03:13:22;;;;;;;;;;;23.10;34.60;;;;;;5063528;28;19932;-60
2022/03/26 03:15:48;;;;;;;;;;;23.10;34.60;;;;;;5061339;28;20340;-60
2022/03/26 03:18:13;;;;;;;;;;;23.10;34.60;;;;;;5065717;28;19996;-60
2022/03/26 03:20:39;;;;;;;;;;;23.00;34.60;;;;;;5050786;28;19919;-60
2022/03/26 03:23:05;;;;;;;;;;;23.00;34.60;;;;;;5066688;28;19917;-60
2022/03/26 03:25:31;;;;;;;;;;;23.00;34.70;;;;;;5064437;28;20356;-60
2022/03/26 03:27:57;;;;;;;;;;;23.00;34.80;;;;;;5065943;28;19956;-60
2022/03/26 03:30:23;;;;;;;;;;;22.90;34.70;;;;;;5060565;28;19962;-60
2022/03/26 03:32:48;;;;;;;;;;;22.90;34.70;;;;;;5045846;28;19912;-59
2022/03/26 03:35:14;;;;;;;;;;;22.90;34.70;;;;;;5059406;28;19913;-60
2022/03/26 03:37:39;;;;;;;;;;;22.90;34.80;;;;;;5061473;28;19924;-60
2022/03/26 03:40:05;;;;;;;;;;;22.90;34.80;;;;;;5049566;28;19943;-60
2022/03/26 03:42:30;;;;;;;;;;;22.90;34.80;;;;;;5064931;28;19917;-60
2022/03/26 03:44:56;;;;;;;;;;;22.90;34.70;;;;;;5064247;28;19927;-60
2022/03/26 03:47:21;;;;;;;;;;;22.90;34.70;;;;;;5062100;28;19961;-60
2022/03/26 03:49:47;;;;;;;;;;;22.90;34.70;;;;;;5059140;28;20076;-59
2022/03/26 03:52:12;;;;;;;;;;;22.90;34.70;;;;;;5048041;28;19958;-60
2022/03/26 03:54:38;;;;;;;;;;;22.90;34.70;;;;;;5060191;28;19920;-60
2022/03/26 03:57:03;;;;;;;;;;;22.90;34.70;;;;;;5058552;28;19913;-60
2022/03/26 03:59:29;;;;;;;;;;;22.90;34.80;;;;;;5065265;28;19947;-59
2022/03/26 04:01:54;;;;;;;;;;;22.80;35.50;;;;;;5049554;28;19913;-60
2022/03/26 04:04:19;;;;;;;;;;;22.80;34.90;;;;;;5067727;28;19978;-60
2022/03/26 04:06:45;;;;;;;;;;;22.80;34.90;;;;;;5061944;28;19924;-59
2022/03/26 04:09:10;;;;;;;;;;;22.70;34.80;;;;;;5063787;28;19921;-59
2022/03/26 04:11:36;;;;;;;;;;;22.70;34.80;;;;;;5065090;28;19921;-60
2022/03/26 04:14:01;;;;;;;;;;;22.70;34.90;;;;;;5048202;28;19956;-59
2022/03/26 04:16:27;;;;;;;;;;;22.70;34.90;;;;;;5065811;28;19916;-59
2022/03/26 04:18:52;;;;;;;;;;;22.60;34.80;;;;;;5055433;28;20380;-59
2022/03/26 04:21:18;;;;;;;;;;;22.70;34.80;;;;;;5049518;28;19913;-60
2022/03/26 04:23:43;;;;;;;;;;;22.70;34.90;;;;;;5056613;28;19920;-60
2022/03/26 04:26:08;;;;;;;;;;;22.60;34.80;;;;;;5064046;28;19935;-59
2022/03/26 04:28:34;;;;;;;;;;;22.60;34.80;;;;;;5066351;28;19917;-59
2022/03/26 04:30:59;;;;;;;;;;;22.60;34.80;;;;;;5064256;28;19913;-59
2022/03/26 04:33:25;;;;;;;;;;;22.60;34.70;;;;;;5048176;28;19916;-60
2022/03/26 04:35:50;;;;;;;;;;;22.60;34.70;;;;;;5053542;28;19957;-60
2022/03/26 04:38:16;;;;;;;;;;;22.60;34.70;;;;;;5064066;28;19917;-59
2022/03/26 04:40:41;;;;;;;;;;;22.60;34.60;;;;;;5058981;28;20086;-58
2022/03/26 04:43:07;;;;;;;;;;;22.60;34.60;;;;;;5063339;28;19967;-60
2022/03/26 04:45:33;;;;;;;;;;;22.60;34.70;;;;;;5047468;28;19917;-60
2022/03/26 04:47:59;;;;;;;;;;;22.60;34.70;;;;;;5068636;28;19912;-59
2022/03/26 04:50:24;;;;;;;;;;;22.60;34.70;;;;;;5059076;28;20429;-59
2022/03/26 04:52:50;;;;;;;;;;;22.60;34.70;;;;;;5062183;28;19912;-60
2022/03/26 04:55:15;;;;;;;;;;;22.60;34.70;;;;;;5061943;28;20390;-59
2022/03/26 04:57:41;;;;;;;;;;;22.70;34.60;;;;;;5062381;28;20025;-60
2022/03/26 05:00:08;;;;;;;;;;;22.70;34.50;;;;;;5052137;28;19913;-59
2022/03/26 05:02:35;;;;;;;;;;;22.80;34.50;;;;;;5057948;28;19912;-60
2022/03/26 05:05:01;;;;;;;;;;;22.80;34.40;;;;;;5063811;28;19924;-59
2022/03/26 05:10:11;;;;;;;;;;;22.80;34.30;;;;;;5058914;28;20007;-59
2022/03/26 05:12:36;;;;;;;;;;;22.80;34.30;;;;;;5048379;28;20547;-60
2022/03/26 05:15:02;;;;;;;;;;;22.80;34.30;;;;;;5060955;28;19920;-60
2022/03/26 05:17:27;;;;;;;;;;;22.80;34.30;;;;;;5057258;28;19920;-60
2022/03/26 05:19:53;;;;;;;;;;;22.80;34.30;;;;;;5056806;28;19936;-60
2022/03/26 05:22:18;;;;;;;;;;;22.80;34.30;;;;;;5062789;28;20608;-60
2022/03/26 05:24:43;;;;;;;;;;;22.80;34.40;;;;;;5054751;28;19923;-59
2022/03/26 05:27:10;;;;;;;;;;;22.70;34.30;;;;;;5063723;28;20303;-59
2022/03/26 05:29:36;;;;;;;;;;;22.70;34.50;;;;;;5057190;28;19917;-60
2022/03/26 05:32:01;;;;;;;;;;;22.70;34.50;;;;;;5064892;28;19919;-60
2022/03/26 05:34:27;;;;;;;;;;;22.60;34.50;;;;;;5062946;28;19943;-60
2022/03/26 05:36:52;;;;;;;;;;;22.60;34.60;;;;;;5061231;28;20388;-59
2022/03/26 05:39:17;;;;;;;;;;;22.60;34.60;;;;;;5046316;28;19951;-60
2022/03/26 05:41:43;;;;;;;;;;;22.60;34.50;;;;;;5064739;28;19913;-60
2022/03/26 05:44:09;;;;;;;;;;;22.60;34.50;;;;;;5064977;28;19916;-60
2022/03/26 05:46:34;;;;;;;;;;;22.60;34.50;;;;;;5063245;28;19925;-59
2022/03/26 05:49:00;;;;;;;;;;;22.60;34.60;;;;;;5064887;28;20768;-60
2022/03/26 05:51:25;;;;;;;;;;;22.60;34.60;;;;;;5048150;28;20366;-60
2022/03/26 05:53:50;;;;;;;;;;;22.60;34.60;;;;;;5064894;28;19921;-60
2022/03/26 05:56:16;;;;;;;;;;;22.50;34.70;;;;;;5052245;28;19955;-59
2022/03/26 05:58:41;;;;;;;;;;;22.50;34.70;;;;;;5066806;28;19913;-60
2022/03/26 06:01:07;;;;;;;;;;;22.50;34.70;;;;;;5071405;28;19934;-59
2022/03/26 06:03:32;;;;;;;;;;;22.50;34.60;;;;;;5064750;28;19913;-59
2022/03/26 06:05:58;;;;;;;;;;;22.50;34.70;;;;;;5067843;28;20007;-60
2022/03/26 06:08:24;;;;;;;;;;;22.50;34.60;;;;;;5057746;28;19917;-60
2022/03/26 06:10:49;;;;;;;;;;;22.50;34.70;;;;;;5065786;28;19912;-60
2022/03/26 06:13:15;;;;;;;;;;;22.50;34.70;;;;;;5044720;28;20078;-60
2022/03/26 06:15:40;;;;;;;;;;;22.50;34.70;;;;;;5066133;28;19913;-59
2022/03/26 06:18:06;;;;;;;;;;;22.40;34.70;;;;;;5062589;28;20374;-60
2022/03/26 06:20:31;;;;;;;;;;;22.40;34.70;;;;;;5062632;28;20342;-60
2022/03/26 06:22:57;;;;;;;;;;;22.40;34.80;;;;;;5066962;28;19932;-60
2022/03/26 06:25:22;;;;;;;;;;;22.40;34.90;;;;;;5064054;28;19996;-59
2022/03/26 06:27:48;;;;;;;;;;;22.40;34.90;;;;;;5062426;28;19919;-59
2022/03/26 06:30:14;;;;;;;;;;;22.40;34.90;;;;;;5065561;28;20007;-59
2022/03/26 06:32:39;;;;;;;;;;;22.40;35.00;;;;;;5050588;28;19948;-59
2022/03/26 06:35:05;;;;;;;;;;;22.30;35.10;;;;;;5048607;28;19932;-59
2022/03/26 06:37:31;;;;;;;;;;;22.30;35.10;;;;;;5061036;28;19913;-60
2022/03/26 06:39:56;;;;;;;;;;;22.30;35.10;;;;;;5064283;28;19959;-60
2022/03/26 06:42:22;;;;;;;;;;;22.30;35.20;;;;;;5053724;28;19920;-59
2022/03/26 06:44:47;;;;;;;;;;;22.30;35.30;;;;;;5047537;28;19921;-60
2022/03/26 06:47:12;;;;;;;;;;;22.30;35.20;;;;;;5064903;28;19920;-60
2022/03/26 06:49:38;;;;;;;;;;;22.30;35.20;;;;;;5068222;28;20410;-59
2022/03/26 06:52:04;;;;;;;;;;;22.30;35.20;;;;;;5064628;28;20288;-59
2022/03/26 06:54:30;;;;;;;;;;;22.40;35.10;;;;;;5063181;28;19955;-60
2022/03/26 06:56:55;;;;;;;;;;;22.40;35.10;;;;;;5066160;28;19923;-60
2022/03/26 06:59:21;;;;;;;;;;;22.40;35.10;;;;;;5062726;28;19928;-60
2022/03/26 07:01:46;;;;;;;;;;;22.40;35.20;;;;;;5065021;28;19979;-60
2022/03/26 07:04:12;;;;;;;;;;;22.40;35.30;;;;;;5064214;28;19928;-60
2022/03/26 07:06:38;;;;;;;;;;;22.50;35.30;;;;;;5047696;28;19952;-60
2022/03/26 07:09:03;;;;;;;;;;;22.50;35.20;;;;;;5043405;28;19939;-59
2022/03/26 07:11:28;;;;;;;;;;;22.50;35.20;;;;;;5064839;28;19921;-60
2022/03/26 07:13:54;;;;;;;;;;;22.50;35.10;;;;;;5062296;28;19913;-60
2022/03/26 07:16:19;;;;;;;;;;;22.50;35.20;;;;;;5062242;28;19913;-59
2022/03/26 07:18:45;;;;;;;;;;;22.50;35.20;;;;;;5043359;28;20419;-59
2022/03/26 07:21:10;;;;;;;;;;;22.50;35.20;;;;;;5064590;28;20259;-59
2022/03/26 07:23:36;;;;;;;;;;;22.40;35.30;;;;;;5055961;28;19930;-59
2022/03/26 07:26:02;;;;;;;;;;;22.40;35.30;;;;;;5066902;28;20411;-60
2022/03/26 07:28:27;;;;;;;;;;;22.40;35.40;;;;;;5062038;28;20241;-60
2022/03/26 07:30:53;;;;;;;;;;;22.40;35.40;;;;;;5061286;28;19963;-59
2022/03/26 07:33:18;;;;;;;;;;;22.50;35.40;;;;;;5064644;28;19916;-60
2022/03/26 07:35:44;;;;;;;;;;;22.40;35.40;;;;;;5060815;28;19921;-59
2022/03/26 07:38:10;;;;;;;;;;;22.40;35.40;;;;;;5064419;28;20015;-59
2022/03/26 07:40:36;;;;;;;;;;;22.30;35.40;;;;;;5048864;28;20421;-59
2022/03/26 07:43:02;;;;;;;;;;;22.30;35.40;;;;;;5065588;28;20302;-60
2022/03/26 07:45:28;;;;;;;;;;;22.30;35.40;;;;;;5068453;28;19953;-60
2022/03/26 07:47:53;;;;;;;;;;;22.20;35.40;;;;;;5064840;28;20283;-59
2022/03/26 07:50:19;;;;;;;;;;;22.20;35.60;;;;;;5066797;28;19981;-60
2022/03/26 07:52:44;;;;;;;;;;;22.10;35.70;;;;;;5065373;28;19984;-60
2022/03/26 07:55:10;;;;;;;;;;;22.10;35.80;;;;;;5062733;28;20318;-60
2022/03/26 07:57:36;;;;;;;;;;;22.10;35.90;;;;;;5048642;28;19916;-60
2022/03/26 08:00:01;;;;;;;;;;;22.10;36.00;;;;;;5059665;28;19920;-59
2022/03/26 08:02:27;;;;;;;;;;;22.10;36.00;;;;;;5060924;28;19966;-59
2022/03/26 08:04:52;;;;;;;;;;;22.10;36.00;;;;;;5060713;28;19982;-59
2022/03/26 08:07:19;;;;;;;;;;;22.10;36.00;;;;;;5064077;28;19913;-59
2022/03/26 08:09:45;;;;;;;;;;;22.10;36.00;;;;;;5061397;28;19913;-60
2022/03/26 08:12:12;;;;;;;;;;;22.20;36.10;;;;;;5061873;28;20482;-60
2022/03/26 08:14:37;;;;;;;;;;;22.20;36.00;;;;;;5063791;28;19928;-60
2022/03/26 08:17:03;;;;;;;;;;;22.20;36.10;;;;;;5055957;28;19909;-60
2022/03/26 08:19:29;;;;;;;;;;;22.20;36.10;;;;;;5073737;28;19908;-60
2022/03/26 08:21:54;;;;;;;;;;;22.20;36.10;;;;;;5058428;28;19916;-59
2022/03/26 08:24:19;;;;;;;;;;;22.20;36.10;;;;;;5051885;28;19919;-60
2022/03/26 08:26:45;;;;;;;;;;;22.20;36.10;;;;;;5064125;28;20346;-60
2022/03/26 08:29:10;;;;;;;;;;;22.20;36.10;;;;;;5055940;28;19912;-59
2022/03/26 08:31:36;;;;;;;;;;;22.20;36.10;;;;;;5072609;28;19908;-60
2022/03/26 08:34:02;;;;;;;;;;;22.20;36.30;;;;;;5060124;28;19917;-59
2022/03/26 08:36:27;;;;;;;;;;;22.20;36.30;;;;;;5072489;28;19912;-60
2022/03/26 08:38:53;;;;;;;;;;;22.20;36.30;;;;;;5059650;28;20326;-60
2022/03/26 08:41:19;;;;;;;;;;;22.20;36.20;;;;;;5071728;28;19909;-60
2022/03/26 08:43:45;;;;;;;;;;;22.30;36.30;;;;;;5068139;28;19917;-60
2022/03/26 08:46:10;;;;;;;;;;;22.30;36.40;;;;;;5051439;28;19908;-60
2022/03/26 08:48:36;;;;;;;;;;;22.60;36.40;;;;;;5072644;28;19912;-59
2022/03/26 08:51:02;;;;;;;;;;;22.90;36.10;;;;;;5054689;28;19916;-59
2022/03/26 08:53:27;;;;;;;;;;;23.00;35.90;;;;;;5070200;28;19938;-60
2022/03/26 08:55:53;;;;;;;;;;;23.10;36.00;;;;;;5053501;28;20249;-59
2022/03/26 08:58:18;;;;;;;;;;;23.20;35.90;;;;;;5059195;28;20042;-60
2022/03/26 09:00:47;;;;;;;;;;;23.30;35.70;;;;;;5072291;28;20326;-60
2022/03/26 09:03:13;;;;;;;;;;;23.40;35.50;;;;;;5071350;28;19962;-59
2022/03/26 09:05:38;;;;;;;;;;;23.40;35.30;;;;;;5063573;28;19920;-60
2022/03/26 09:08:04;;;;;;;;;;;23.40;35.40;;;;;;5053826;28;19912;-61
2022/03/26 09:10:29;;;;;;;;;;;23.40;35.90;;;;;;5056809;28;20371;-60
2022/03/26 09:12:55;;;;;;;;;;;23.40;35.90;;;;;;5073518;28;19920;-60
2022/03/26 09:15:20;;;;;;;;;;;23.50;36.00;;;;;;5066069;28;20371;-60
2022/03/26 09:17:46;;;;;;;;;;;23.50;35.90;;;;;;5050455;28;20379;-60
2022/03/26 09:20:11;;;;;;;;;;;23.40;35.90;;;;;;5060646;28;19995;-60
2022/03/26 09:22:37;;;;;;;;;;;23.40;36.20;;;;;;5065366;28;20259;-60
2022/03/26 09:25:03;;;;;;;;;;;23.40;36.30;;;;;;5047932;28;19925;-60
2022/03/26 09:27:28;;;;;;;;;;;23.40;36.20;;;;;;5049634;28;20432;-60
2022/03/26 09:29:54;;;;;;;;;;;23.40;36.40;;;;;;5048575;28;19947;-60
2022/03/26 09:32:20;;;;;;;;;;;23.40;36.20;;;;;;5063896;28;19913;-60
2022/03/26 09:34:46;;;;;;;;;;;23.40;36.30;;;;;;5053335;28;19913;-60
2022/03/26 09:37:12;;;;;;;;;;;23.40;36.30;;;;;;5066345;28;19919;-60
2022/03/26 09:39:38;;;;;;;;;;;23.40;36.30;;;;;;5065544;28;20352;-60
2022/03/26 09:42:03;;;;;;;;;;;23.40;36.20;;;;;;5049721;28;19963;-60
2022/03/26 09:44:29;;;;;;;;;;;23.50;36.30;;;;;;5067807;28;19917;-60
2022/03/26 09:46:54;;;;;;;;;;;23.50;36.40;;;;;;5069964;28;19936;-60
2022/03/26 09:49:20;;;;;;;;;;;23.40;36.30;;;;;;5065948;28;19962;-60
2022/03/26 09:51:46;;;;;;;;;;;23.50;36.40;;;;;;5067327;28;20312;-60
2022/03/26 09:54:12;;;;;;;;;;;23.50;36.40;;;;;;5061667;28;19913;-60
2022/03/26 09:56:38;;;;;;;;;;;23.50;36.60;;;;;;5049898;28;19924;-60
2022/03/26 09:59:04;;;;;;;;;;;23.40;36.80;;;;;;5050391;28;19920;-59
2022/03/26 10:01:29;;;;;;;;;;;23.50;37.00;;;;;;5061760;28;19912;-60
2022/03/26 10:04:11;;;;;;;;;;;23.50;37.00;;;;;;5063476;28;20078;-60
2022/03/26 10:06:36;;;;;;;;;;;23.50;36.90;;;;;;5051488;28;19921;-60
2022/03/26 10:09:02;;;;;;;;;;;23.50;37.00;;;;;;5067514;28;20291;-60
2022/03/26 10:11:32;;;;;;;;;;;23.40;37.10;;;;;;5064889;28;19955;-60
2022/03/26 10:13:57;;;;;;;;;;;23.40;37.20;;;;;;5066320;28;20253;-60
2022/03/26 10:16:22;;;;;;;;;;;23.40;37.30;;;;;;5049101;28;20009;-60
2022/03/26 10:18:48;;;;;;;;;;;23.40;37.50;;;;;;5066473;28;19935;-60
2022/03/26 10:21:13;;;;;;;;;;;23.30;37.60;;;;;;5064848;28;19919;-60
2022/03/26 10:23:42;;;;;;;;;;;23.20;37.60;;;;;;5062270;28;19940;-60
2022/03/26 10:26:26;;;;;;;;;;;23.30;37.70;;;;;;5048371;28;20406;-60
2022/03/26 10:28:56;;;;;;;;;;;23.30;37.70;;;;;;5065708;28;19978;-59
2022/03/26 10:34:12;;;;;;;;;;;23.30;37.80;;;;;;5067153;28;19921;-59
2022/03/26 10:36:42;;;;;;;;;;;23.30;37.90;;;;;;5064323;28;19927;-59
2022/03/26 10:39:13;;;;;;;;;;;23.30;38.40;;;;;;5048651;28;19932;-59
2022/03/26 10:41:38;;;;;;;;;;;23.40;37.80;;;;;;5069073;28;19926;-59
2022/03/26 10:44:05;;;;;;;;;;;23.40;37.70;;;;;;5056250;28;19916;-61
2022/03/26 10:46:30;;;;;;;;;;;23.40;37.60;;;;;;5042610;28;19916;-61
2022/03/26 10:49:02;;;;;;;;;;;23.50;37.60;;;;;;5050827;28;19916;-61
2022/03/26 10:51:30;;;;;;;;;;;23.50;37.60;;;;;;5065209;28;20380;-61
2022/03/26 10:53:57;;;;;;;;;;;23.40;37.60;;;;;;5064526;28;19999;-61
2022/03/26 10:56:23;;;;;;;;;;;23.40;37.70;;;;;;5064413;28;19927;-61
2022/03/26 10:58:48;;;;;;;;;;;23.40;37.60;;;;;;5044535;28;19913;-61
2022/03/26 11:01:13;;;;;;;;;;;23.50;37.40;;;;;;5066033;28;19947;-62
2022/03/26 11:03:39;;;;;;;;;;;23.50;37.50;;;;;;5065577;28;19916;-61
2022/03/26 11:06:08;;;;;;;;;;;23.50;37.40;;;;;;5066867;28;19913;-61
2022/03/26 11:08:33;;;;;;;;;;;23.50;37.40;;;;;;5065326;28;19913;-61
2022/03/26 11:10:59;;;;;;;;;;;23.50;37.40;;;;;;5049291;28;19920;-61
2022/03/26 11:13:26;;;;;;;;;;;23.50;37.50;;;;;;5064393;28;20307;-61
2022/03/26 11:15:54;;;;;;;;;;;23.50;37.50;;;;;;5063140;28;19960;-61
2022/03/26 11:18:20;;;;;;;;;;;23.50;37.40;;;;;;5047164;28;19917;-61
2022/03/26 11:21:04;;;;;;;;;;;23.60;37.40;;;;;;5062901;28;20257;-61
2022/03/26 11:23:32;;;;;;;;;;;23.60;37.30;;;;;;5063609;28;20446;-61
2022/03/26 11:26:07;;;;;;;;;;;23.60;37.20;;;;;;5063094;28;19921;-61
2022/03/26 11:28:32;;;;;;;;;;;23.60;37.20;;;;;;5062671;28;19920;-61
2022/03/26 11:31:01;;;;;;;;;;;23.70;37.20;;;;;;5061043;28;19912;-58
2022/03/26 11:33:32;;;;;;;;;;;23.70;37.00;;;;;;5050217;28;19912;-58
2022/03/26 11:35:58;;;;;;;;;;;23.80;37.20;;;;;;5063476;28;19925;-59
2022/03/26 11:38:24;;;;;;;;;;;23.90;37.00;;;;;;5063476;28;20330;-59
2022/03/26 11:40:51;;;;;;;;;;;23.90;36.90;;;;;;5063941;28;19913;-59
2022/03/26 11:43:39;;;;;;;;;;;24.00;36.80;;;;;;5065851;28;19962;-59
2022/03/26 11:51:35;;;;;;;;;;;24.10;36.90;;;;;;5064155;28;20578;-60
2022/03/26 11:54:09;;;;;;;;;;;24.10;36.90;;;;;;5068755;28;19916;-59
2022/03/26 11:56:35;;;;;;;;;;;24.10;36.90;;;;;;5063427;28;19921;-59
2022/03/26 11:59:03;;;;;;;;;;;24.10;36.90;;;;;;5065558;28;20380;-59
2022/03/26 12:01:35;;;;;;;;;;;24.10;36.90;;;;;;5063536;28;19924;-59
2022/03/26 12:04:14;;;;;;;;;;;24.10;37.20;;;;;;5058768;28;19924;-59
2022/03/26 12:06:48;;;;;;;;;;;24.00;37.10;;;;;;5041157;28;20785;-59
2022/03/26 12:09:33;;;;;;;;;;;24.00;37.20;;;;;;5061736;28;19912;-60
2022/03/26 12:12:04;;;;;;;;;;;24.00;37.40;;;;;;5061409;28;19920;-62
2022/03/26 12:14:30;;;;;;;;;;;23.90;37.40;;;;;;5061655;28;19921;-59
2022/03/26 12:16:56;;;;;;;;;;;23.90;37.70;;;;;;5045634;28;19917;-59
2022/03/26 12:19:41;;;;;;;;;;;23.80;37.70;;;;;;5065023;28;19912;-59
2022/03/26 12:22:26;;;;;;;;;;;23.80;37.70;;;;;;5062260;28;19919;-59
2022/03/26 12:24:52;;;;;;;;;;;23.70;38.40;;;;;;5058254;28;19921;-59
2022/03/26 12:27:17;;;;;;;;;;;23.80;37.80;;;;;;5060964;28;20007;-59
2022/03/26 12:29:43;;;;;;;;;;;23.80;37.90;;;;;;5047147;28;20147;-61
2022/03/26 12:32:08;;;;;;;;;;;23.70;37.90;;;;;;5060982;28;19913;-59
2022/03/26 12:34:34;;;;;;;;;;;23.70;38.00;;;;;;5060484;28;19913;-59
2022/03/26 12:37:00;;;;;;;;;;;23.70;38.10;;;;;;5062111;28;19926;-59
2022/03/26 12:39:25;;;;;;;;;;;23.70;38.10;;;;;;5046146;28;19921;-59
2022/03/26 12:41:51;;;;;;;;;;;23.70;38.30;;;;;;5062717;28;19921;-59
2022/03/26 12:44:16;;;;;;;;;;;23.70;38.20;;;;;;5049091;28;20042;-59
2022/03/26 12:46:44;;;;;;;;;;;23.60;38.20;;;;;;5063689;28;20003;-59
2022/03/26 12:49:16;;;;;;;;;;;23.60;38.30;;;;;;5062611;28;19924;-60
2022/03/26 12:51:42;;;;;;;;;;;23.70;38.40;;;;;;5044899;28;20259;-59
2022/03/26 12:54:07;;;;;;;;;;;23.70;38.70;;;;;;5063967;28;19962;-59
2022/03/26 12:56:33;;;;;;;;;;;23.80;38.40;;;;;;5063306;28;19921;-60
2022/03/26 12:59:00;;;;;;;;;;;23.70;38.40;;;;;;5063723;28;20003;-60
2022/03/26 13:01:28;;;;;;;;;;;23.80;38.60;;;;;;5062462;28;19925;-59
2022/03/26 13:03:53;;;;;;;;;;;23.70;38.40;;;;;;5060837;28;20015;-61
2022/03/26 13:06:19;;;;;;;;;;;23.70;38.40;;;;;;5062369;28;20362;-59
2022/03/26 13:08:52;;;;;;;;;;;23.70;38.60;;;;;;5057155;28;20362;-59
2022/03/26 13:11:18;;;;;;;;;;;23.70;38.70;;;;;;5060092;28;20342;-59
2022/03/26 13:13:47;;;;;;;;;;;23.80;38.80;;;;;;5058093;28;19958;-59
2022/03/26 13:16:14;;;;;;;;;;;23.70;38.90;;;;;;5060479;28;19958;-59
2022/03/26 13:18:40;;;;;;;;;;;23.70;39.00;;;;;;5060852;28;19923;-59
2022/03/26 13:21:06;;;;;;;;;;;23.70;39.70;;;;;;5061683;28;22001;-60
2022/03/26 13:23:31;;;;;;;;;;;23.70;39.10;;;;;;5060789;28;19988;-60
2022/03/26 13:25:57;;;;;;;;;;;23.70;39.00;;;;;;5064021;28;19917;-60
2022/03/26 13:28:23;;;;;;;;;;;23.70;38.90;;;;;;5061203;28;19921;-60
2022/03/26 13:30:49;;;;;;;;;;;23.70;39.00;;;;;;5064067;28;19917;-60
2022/03/26 13:33:23;;;;;;;;;;;23.70;39.00;;;;;;5063061;28;19924;-58
2022/03/26 13:35:49;;;;;;;;;;;23.70;39.00;;;;;;5048306;28;19979;-59
2022/03/26 13:38:14;;;;;;;;;;;23.70;39.20;;;;;;5047038;28;20033;-59
2022/03/26 13:40:40;;;;;;;;;;;23.60;39.00;;;;;;5064450;28;19912;-60
2022/03/26 13:43:06;;;;;;;;;;;23.70;39.00;;;;;;5047260;28;19944;-60
2022/03/26 13:45:32;;;;;;;;;;;23.70;39.70;;;;;;5044647;28;20016;-59
2022/03/26 13:47:57;;;;;;;;;;;23.80;39.00;;;;;;5062879;28;20290;-60
2022/03/26 13:50:23;;;;;;;;;;;23.80;38.90;;;;;;5065423;28;20002;-60
2022/03/26 13:52:50;;;;;;;;;;;23.80;38.90;;;;;;5063385;28;19964;-60
2022/03/26 13:55:29;;;;;;;;;;;23.80;38.70;;;;;;5064690;28;19939;-60
2022/03/26 13:57:56;;;;;;;;;;;23.80;38.60;;;;;;5063315;28;19924;-59
2022/03/26 14:00:25;;;;;;;;;;;23.90;38.60;;;;;;5047934;28;20015;-60
2022/03/26 14:02:50;;;;;;;;;;;24.00;38.60;;;;;;5064001;28;19913;-60
2022/03/26 14:05:25;;;;;;;;;;;24.00;38.50;;;;;;5058641;28;20015;-60
2022/03/26 14:07:51;;;;;;;;;;;24.00;38.50;;;;;;5068319;28;20030;-60
2022/03/26 14:10:16;;;;;;;;;;;24.00;38.50;;;;;;5049575;28;19980;-60
2022/03/26 14:12:42;;;;;;;;;;;24.00;38.40;;;;;;5062079;28;19912;-59
2022/03/26 14:15:08;;;;;;;;;;;24.00;38.50;;;;;;5050010;28;19916;-60
2022/03/26 14:17:33;;;;;;;;;;;24.00;38.50;;;;;;5048437;28;19920;-60
2022/03/26 14:19:59;;;;;;;;;;;24.00;38.60;;;;;;5054343;28;20391;-59
2022/03/26 14:22:25;;;;;;;;;;;23.90;38.50;;;;;;5066881;28;19944;-60